Time;durP1;ratioP1;P1;durP2;ratioP2;P2;SDS_P1;SDS_P2;PMS_P1;PMS_P2;Temp;Humidity;BMP_temperature;BMP_pressure;BME280_temperature;BME280_humidity;BME280_pressure;Samples;Min_cycle;Max_cycle;Signal;HPM_P1;HPM_P2
2023/12/27 00:00:51;;;;;;;;;14.67;10.67;;;;;11.40;82.45;101361.97;4981565;28;60206;-84
2023/12/27 00:03:16;;;;;;;;;10.00;10.00;;;;;11.40;82.53;101369.97;4978369;28;45456;-81
2023/12/27 00:05:42;;;;;;;;;10.00;10.00;;;;;11.42;82.46;101373.41;5007956;28;53897;-83
2023/12/27 00:08:07;;;;;;;;;11.00;11.00;;;;;11.39;82.23;101373.56;5016473;28;46081;-80
2023/12/27 00:10:32;;;;;;;;;9.67;9.00;;;;;11.39;82.23;101373.56;4995214;28;45317;-83
2023/12/27 00:12:57;;;;;;;;;13.00;11.67;;;;;11.35;81.72;101340.91;4988519;28;46544;-85
2023/12/27 00:15:23;;;;;;;;;10.33;9.33;;;;;11.50;81.95;101361.47;4975989;27;45706;-83
2023/12/27 00:17:48;;;;;;;;;10.67;9.67;;;;;11.50;81.36;101357.94;4975289;28;45462;-84
2023/12/27 00:20:14;;;;;;;;;13.00;11.00;;;;;11.41;81.47;101345.91;5007506;28;45488;-85
2023/12/27 00:22:40;;;;;;;;;12.33;11.33;;;;;11.27;82.13;101336.84;5013575;28;45686;-83
2023/12/27 00:25:06;;;;;;;;;10.00;10.00;;;;;11.39;81.97;101365.56;4997880;28;45226;-84
2023/12/27 00:27:31;;;;;;;;;11.67;10.33;;;;;11.39;82.09;101358.44;4982280;27;47466;-83
2023/12/27 00:29:56;;;;;;;;;14.00;12.33;;;;;11.50;81.61;101365.94;4994820;28;58822;-84
2023/12/27 00:32:22;;;;;;;;;11.00;10.25;;;;;11.52;81.52;101353.41;4994485;28;46140;-88
2023/12/27 00:34:50;;;;;;;;;13.00;11.33;;;;;11.53;81.29;101341.81;4976253;28;45225;-84
2023/12/27 00:37:15;;;;;;;;;13.67;11.00;;;;;11.52;81.13;101342.75;4976880;28;45436;-85
2023/12/27 00:39:41;;;;;;;;;13.33;11.67;;;;;11.51;81.55;101330.38;4987172;28;45745;-85
2023/12/27 00:42:07;;;;;;;;;9.33;9.33;;;;;11.42;81.17;101320.16;4997174;28;45341;-83
2023/12/27 00:44:32;;;;;;;;;8.00;6.33;;;;;11.41;81.40;101329.06;4977995;28;45321;-84
2023/12/27 00:46:57;;;;;;;;;12.33;9.00;;;;;11.37;81.22;101327.50;4976863;28;45986;-83
2023/12/27 00:49:23;;;;;;;;;10.00;10.00;;;;;11.31;81.86;101322.44;4992913;28;45312;-84
2023/12/27 00:51:48;;;;;;;;;13.00;10.00;;;;;11.35;81.75;101329.38;5013084;28;45379;-84
2023/12/27 00:54:13;;;;;;;;;10.67;10.00;;;;;11.33;81.81;101333.88;4975983;28;45497;-86
2023/12/27 00:56:39;;;;;;;;;14.33;10.00;;;;;11.35;82.09;101332.03;4990871;28;51636;-84
2023/12/27 00:59:06;;;;;;;;;16.50;10.50;;;;;11.32;82.04;101318.84;4994821;28;45512;-85
2023/12/27 01:01:31;;;;;;;;;13.00;9.00;;;;;11.34;81.84;101322.31;5003710;27;45368;-88
2023/12/27 01:03:56;;;;;;;;;10.00;10.00;;;;;11.45;81.57;101314.66;4982860;27;45181;-84
2023/12/27 01:06:22;;;;;;;;;14.33;11.67;;;;;11.40;81.79;101290.06;4999628;27;45229;-86
2023/12/27 01:08:47;;;;;;;;;11.00;9.00;;;;;11.34;81.95;101299.22;5011382;27;45287;-81
2023/12/27 01:11:13;;;;;;;;;11.50;10.75;;;;;11.43;81.81;101316.53;4986903;28;45354;-82
2023/12/27 01:13:38;;;;;;;;;14.67;12.33;;;;;11.33;81.50;101293.94;4990989;28;45240;-85
2023/12/27 01:16:04;;;;;;;;;13.67;11.00;;;;;11.37;81.61;101311.53;4994060;28;45373;-85
2023/12/27 01:18:29;;;;;;;;;12.00;11.00;;;;;11.31;81.85;101328.63;5010176;27;45500;-83
2023/12/27 01:20:54;;;;;;;;;11.33;10.00;;;;;11.37;81.92;101328.38;4997738;28;46406;-83
2023/12/27 01:23:19;;;;;;;;;11.67;9.00;;;;;11.33;81.30;101320.56;5013621;28;61118;-83
2023/12/27 01:25:45;;;;;;;;;12.67;10.67;;;;;11.47;81.33;101328.78;5015029;27;65621;-81
2023/12/27 01:28:12;;;;;;;;;12.00;12.00;;;;;11.44;80.91;101326.25;5014965;28;49468;-86
2023/12/27 01:30:37;;;;;;;;;11.67;8.67;;;;;11.47;81.12;101318.13;5015426;27;45414;-82
2023/12/27 01:33:03;;;;;;;;;11.00;11.00;;;;;11.33;80.30;101289.50;4997683;28;47649;-85
2023/12/27 01:35:28;;;;;;;;;10.00;10.00;;;;;11.42;81.11;101315.69;4986697;28;45486;-85
2023/12/27 01:37:53;;;;;;;;;11.00;10.00;;;;;11.37;80.92;101308.84;5013555;28;45420;-84
2023/12/27 01:40:19;;;;;;;;;14.33;10.67;;;;;11.23;81.42;101302.41;5012361;27;58334;-84
2023/12/27 01:42:44;;;;;;;;;10.33;9.67;;;;;11.20;81.93;101294.56;4999092;28;45580;-83
2023/12/27 01:45:10;;;;;;;;;10.33;10.33;;;;;11.15;82.12;101299.22;4979164;28;45334;-84
2023/12/27 01:47:37;;;;;;;;;13.00;10.00;;;;;11.09;81.89;101306.66;4993689;28;45306;-86
2023/12/27 01:50:05;;;;;;;;;9.67;9.67;;;;;11.07;82.17;101325.34;4993894;28;45235;-82
2023/12/27 01:52:31;;;;;;;;;11.67;9.00;;;;;11.06;82.03;101312.94;4993823;28;45383;-82
2023/12/27 01:54:56;;;;;;;;;12.33;11.67;;;;;11.11;81.78;101315.41;4986599;28;45317;-81
2023/12/27 01:57:21;;;;;;;;;10.75;10.50;;;;;11.16;82.18;101318.72;5016556;27;54504;-83
2023/12/27 01:59:47;;;;;;;;;12.00;10.67;;;;;11.16;81.97;101308.94;5019454;27;45227;-82
2023/12/27 02:02:13;;;;;;;;;12.67;10.00;;;;;11.14;81.96;101305.47;4994285;27;45519;-84
2023/12/27 02:04:38;;;;;;;;;10.75;10.00;;;;;11.11;82.27;101300.31;5004735;28;47000;-83
2023/12/27 02:07:05;;;;;;;;;11.50;10.50;;;;;11.08;82.13;101272.97;5010804;28;45294;-83
2023/12/27 02:09:31;;;;;;;;;14.50;10.75;;;;;11.01;81.92;101272.38;5013544;27;45510;-83
2023/12/27 02:11:56;;;;;;;;;12.00;9.75;;;;;10.95;82.17;101271.81;4979391;28;45541;-83
2023/12/27 02:14:21;;;;;;;;;11.25;10.50;;;;;10.90;81.53;101274.69;4973537;28;61218;-83
2023/12/27 02:16:48;;;;;;;;;9.25;9.25;;;;;11.02;81.75;101294.53;5008695;28;45227;-83
2023/12/27 02:19:20;;;;;;;;;9.67;7.00;;;;;11.02;81.58;101316.69;5013391;27;45319;-82
2023/12/27 02:21:48;;;;;;;;;11.50;8.50;;;;;10.99;81.66;101282.25;5014235;28;45292;-84
2023/12/27 02:24:15;;;;;;;;;11.50;10.50;;;;;11.05;81.61;101284.59;4989693;28;46288;-82
2023/12/27 02:26:41;;;;;;;;;8.50;7.25;;;;;10.97;81.67;101276.13;5010402;28;45270;-83
2023/12/27 02:29:06;;;;;;;;;9.75;7.25;;;;;10.99;81.61;101274.25;5013342;28;45368;-84
2023/12/27 02:31:31;;;;;;;;;9.00;8.00;;;;;10.94;82.02;101281.63;4998703;27;45528;-86
2023/12/27 02:33:58;;;;;;;;;11.50;11.00;;;;;10.84;82.16;101259.00;4982143;28;45499;-83
2023/12/27 02:36:24;;;;;;;;;8.33;7.33;;;;;10.94;81.50;101292.25;4997870;28;45363;-83
2023/12/27 02:38:49;;;;;;;;;11.67;9.33;;;;;11.01;81.69;101277.72;4988743;28;45719;-86
2023/12/27 02:41:14;;;;;;;;;7.00;5.67;;;;;11.01;80.99;101276.84;4980673;28;45534;-84
2023/12/27 02:43:40;;;;;;;;;13.00;9.00;;;;;10.99;81.48;101279.59;4985003;28;46474;-83
2023/12/27 02:46:05;;;;;;;;;11.67;9.00;;;;;10.96;81.54;101261.09;5019688;28;47121;-85
2023/12/27 02:48:30;;;;;;;;;9.00;9.00;;;;;10.91;81.19;101249.78;5020290;27;45292;-84
2023/12/27 02:50:56;;;;;;;;;9.00;9.00;;;;;10.97;81.33;101249.53;5016401;28;52998;-86
2023/12/27 02:53:22;;;;;;;;;10.50;8.75;;;;;10.97;81.06;101238.00;5001594;27;67144;-85
2023/12/27 02:55:48;;;;;;;;;9.00;9.00;;;;;11.04;80.69;101226.97;4990715;28;45421;-86
2023/12/27 02:58:14;;;;;;;;;8.67;6.00;;;;;11.09;80.59;101227.66;4998500;27;45427;-86
2023/12/27 03:00:41;;;;;;;;;11.50;9.00;;;;;11.08;81.02;101231.25;4998737;28;45376;-85
2023/12/27 03:03:06;;;;;;;;;9.00;7.25;;;;;11.17;79.63;101254.75;4996387;28;46603;-86
2023/12/27 03:05:31;;;;;;;;;7.50;7.50;;;;;11.18;79.59;101248.47;5001452;28;45734;-85
2023/12/27 03:07:56;;;;;;;;;8.50;8.00;;;;;11.25;78.96;101249.06;5004709;28;55270;-84
2023/12/27 03:10:22;;;;;;;;;8.33;6.33;;;;;11.32;79.09;101250.47;4992918;28;52713;-84
2023/12/27 03:12:47;;;;;;;;;10.50;9.25;;;;;11.21;78.94;101237.72;4976125;28;62631;-82
2023/12/27 03:15:12;;;;;;;;;9.50;5.75;;;;;11.30;78.89;101246.16;5003557;28;45374;-82
2023/12/27 03:17:38;;;;;;;;;11.00;6.67;;;;;11.24;78.73;101231.38;5002775;27;45294;-83
2023/12/27 03:20:03;;;;;;;;;4.67;4.67;;;;;11.33;78.61;101241.56;4995601;28;53831;-84
2023/12/27 03:22:28;;;;;;;;;9.33;7.67;;;;;11.33;78.30;101236.25;4989534;27;46099;-84
2023/12/27 03:24:53;;;;;;;;;9.33;9.33;;;;;11.35;78.49;101217.53;5009869;28;49880;-84
2023/12/27 03:27:19;;;;;;;;;8.00;8.00;;;;;11.35;78.14;101226.38;4999779;28;61721;-86
2023/12/27 03:29:44;;;;;;;;;8.33;6.00;;;;;11.37;78.30;101231.63;4996790;28;45397;-85
2023/12/27 03:32:09;;;;;;;;;6.67;6.67;;;;;11.31;77.65;101230.09;4993578;28;62350;-83
2023/12/27 03:34:35;;;;;;;;;10.00;8.00;;;;;11.30;78.56;101214.22;5005498;28;51880;-83
2023/12/27 03:37:00;;;;;;;;;5.67;4.00;;;;;11.28;78.60;101208.97;4982473;28;45320;-83
2023/12/27 03:39:25;;;;;;;;;6.33;6.33;;;;;11.27;78.49;101209.03;4976117;28;45375;-83
2023/12/27 03:41:51;;;;;;;;;5.00;5.00;;;;;11.28;78.06;101208.09;4975525;28;56388;-85
2023/12/27 03:44:16;;;;;;;;;9.00;6.33;;;;;11.12;78.33;101187.56;4982834;27;45235;-83
2023/12/27 03:46:41;;;;;;;;;8.67;6.67;;;;;11.17;78.36;101196.16;4988544;28;45228;-84
2023/12/27 03:49:07;;;;;;;;;6.00;6.00;;;;;11.09;78.96;101174.41;5003533;28;45180;-85
2023/12/27 03:51:32;;;;;;;;;7.00;6.33;;;;;11.10;79.33;101184.13;4996027;28;45334;-85
2023/12/27 03:53:58;;;;;;;;;5.67;4.33;;;;;11.04;79.33;101186.19;4979358;28;45259;-83
2023/12/27 03:56:23;;;;;;;;;8.00;8.00;;;;;11.12;78.89;101194.69;4978868;28;45500;-87
2023/12/27 03:58:48;;;;;;;;;4.33;4.33;;;;;11.06;78.98;101185.19;4993601;27;45626;-84
2023/12/27 04:01:19;;;;;;;;;9.67;5.33;;;;;11.06;78.77;101185.19;4975744;28;45213;-84
2023/12/27 04:03:44;;;;;;;;;9.33;8.00;;;;;11.03;78.85;101184.47;4978966;28;45403;-87
2023/12/27 04:06:16;;;;;;;;;3.33;3.00;;;;;11.13;79.10;101186.63;4990527;28;49888;-83
2023/12/27 04:08:41;;;;;;;;;4.33;4.33;;;;;11.17;78.52;101190.84;4991002;28;45396;-84
2023/12/27 04:11:07;;;;;;;;;8.00;5.67;;;;;11.16;78.21;101189.13;5010528;28;67161;-83
2023/12/27 04:13:32;;;;;;;;;6.33;6.33;;;;;10.90;78.31;101147.81;4994769;28;53922;-84
2023/12/27 04:15:57;;;;;;;;;4.00;4.00;;;;;11.03;78.48;101180.00;4985169;28;57157;-81
2023/12/27 04:18:23;;;;;;;;;8.00;6.00;;;;;10.98;79.30;101184.72;4979852;28;47077;-85
2023/12/27 04:20:48;;;;;;;;;6.33;6.33;;;;;10.94;78.49;101164.50;4990775;28;45477;-84
2023/12/27 04:23:13;;;;;;;;;4.00;4.00;;;;;10.83;79.73;101158.84;4975789;28;56213;-84
2023/12/27 04:25:38;;;;;;;;;5.00;5.00;;;;;10.65;79.95;101133.97;5010268;28;47472;-85
2023/12/27 04:28:04;;;;;;;;;9.00;6.67;;;;;10.66;80.02;101145.47;4978665;28;45563;-86
2023/12/27 04:30:29;;;;;;;;;8.50;6.25;;;;;10.57;80.17;101134.34;4978218;28;48217;-87
2023/12/27 04:32:55;;;;;;;;;7.25;4.50;;;;;10.53;80.41;101148.69;4995437;28;45430;-83
2023/12/27 04:35:20;;;;;;;;;7.00;6.50;;;;;10.52;80.50;101154.94;4995626;28;46292;-84
2023/12/27 04:37:45;;;;;;;;;7.50;4.75;;;;;10.51;81.05;101155.91;4993867;28;46532;-86
2023/12/27 04:40:11;;;;;;;;;6.25;5.00;;;;;10.52;80.75;101140.78;5011342;28;59020;-83
2023/12/27 04:42:36;;;;;;;;;5.75;5.00;;;;;10.51;81.12;101139.94;5013182;27;45339;-85
2023/12/27 04:45:01;;;;;;;;;7.50;6.50;;;;;10.40;81.29;101125.41;5014109;27;56185;-83
2023/12/27 04:47:27;;;;;;;;;8.50;7.50;;;;;10.40;81.71;101123.63;4986829;28;45621;-83
2023/12/27 04:49:52;;;;;;;;;7.00;6.50;;;;;10.42;81.61;101127.09;4975873;28;46471;-82
2023/12/27 04:52:17;;;;;;;;;8.00;7.00;;;;;10.37;81.90;101115.78;4975418;28;48742;-84
2023/12/27 04:54:42;;;;;;;;;9.25;5.00;;;;;10.32;81.86;101121.34;5001858;28;46904;-86
2023/12/27 04:57:08;;;;;;;;;8.00;7.00;;;;;10.30;82.21;101117.03;4992179;28;45179;-85
2023/12/27 04:59:33;;;;;;;;;7.75;5.50;;;;;10.28;82.10;101127.69;4975743;28;45837;-85
2023/12/27 05:01:58;;;;;;;;;5.00;5.00;;;;;10.32;81.42;101124.00;4985240;28;45495;-83
2023/12/27 05:04:24;;;;;;;;;5.00;5.00;;;;;10.37;81.23;101118.44;5014122;28;50285;-85
2023/12/27 05:06:49;;;;;;;;;8.00;6.00;;;;;10.20;81.05;101094.44;4987231;28;45603;-84
2023/12/27 05:09:16;;;;;;;;;4.00;4.00;;;;;10.37;81.58;101137.06;4975748;28;45981;-84
2023/12/27 05:11:41;;;;;;;;;5.25;4.75;;;;;10.33;81.39;101127.50;4977189;28;45442;-83
2023/12/27 05:14:07;;;;;;;;;3.25;3.00;;;;;10.42;80.58;101139.53;4984225;28;45774;-85
2023/12/27 05:16:32;;;;;;;;;7.33;5.00;;;;;10.41;80.55;101125.34;4983130;28;46920;-85
2023/12/27 05:18:57;;;;;;;;;8.33;7.00;;;;;10.41;81.61;101129.78;4993286;28;46290;-84
2023/12/27 05:21:23;;;;;;;;;7.67;4.67;;;;;10.40;80.93;101122.75;4994562;28;45329;-84
2023/12/27 05:23:48;;;;;;;;;4.00;4.00;;;;;10.45;80.99;101140.25;4993656;28;45324;-85
2023/12/27 05:26:13;;;;;;;;;8.67;5.00;;;;;10.44;80.11;101127.88;4993917;28;57048;-85
2023/12/27 05:28:40;;;;;;;;;9.00;4.00;;;;;10.41;80.85;101128.00;4982321;28;45516;-84
2023/12/27 05:31:05;;;;;;;;;7.00;5.67;;;;;10.40;81.11;101125.41;4994088;28;45502;-85
2023/12/27 05:33:31;;;;;;;;;4.67;4.67;;;;;10.39;80.85;101126.34;4994794;28;45326;-87
2023/12/27 05:35:57;;;;;;;;;7.67;5.67;;;;;10.39;80.99;101123.69;4995151;28;45554;-85
2023/12/27 05:38:22;;;;;;;;;4.33;4.33;;;;;10.32;80.14;101116.00;4974815;27;45271;-89
2023/12/27 05:40:50;;;;;;;;;4.75;4.00;;;;;10.33;80.67;101120.41;4986060;28;45364;-84
2023/12/27 05:43:16;;;;;;;;;7.25;5.00;;;;;10.37;80.22;101123.75;5013965;28;45443;-88
2023/12/27 05:45:41;;;;;;;;;7.00;4.75;;;;;10.41;80.94;101128.00;5010818;28;45518;-84
2023/12/27 05:48:08;;;;;;;;;4.00;4.00;;;;;10.40;80.43;101120.97;4973848;28;70057;-84
2023/12/27 05:50:33;;;;;;;;;13.00;7.00;;;;;10.41;79.71;101111.19;4973192;28;45426;-82
2023/12/27 05:52:58;;;;;;;;;4.33;3.00;;;;;10.36;80.12;101103.44;4994417;28;45266;-84
2023/12/27 05:55:23;;;;;;;;;5.67;3.67;;;;;10.30;80.38;101104.59;5015455;28;45353;-85
2023/12/27 05:57:50;;;;;;;;;6.50;6.50;;;;;10.28;80.87;101100.25;4991196;28;51489;-84
2023/12/27 06:00:16;;;;;;;;;4.00;3.00;;;;;10.28;80.76;101106.44;5011427;27;45496;-85
2023/12/27 06:02:41;;;;;;;;;7.67;6.67;;;;;10.15;80.65;101104.38;5003101;27;45917;-89
2023/12/27 06:05:08;;;;;;;;;10.00;7.00;;;;;10.24;80.28;101118.16;5012084;28;45244;-82
2023/12/27 06:07:33;;;;;;;;;5.67;5.67;;;;;10.30;81.32;101125.00;4982254;28;46254;-85
2023/12/27 06:09:59;;;;;;;;;5.67;3.33;;;;;10.35;80.24;101122.97;4977747;28;45406;-82
2023/12/27 06:12:24;;;;;;;;;4.00;4.00;;;;;10.33;80.05;101114.22;4979605;28;45246;-84
2023/12/27 06:14:49;;;;;;;;;3.75;3.75;;;;;10.30;80.00;101117.03;4993137;28;45533;-85
2023/12/27 06:17:15;;;;;;;;;10.00;8.00;;;;;10.34;80.56;101126.56;4984800;28;46150;-83
2023/12/27 06:19:40;;;;;;;;;6.25;4.00;;;;;10.22;79.44;101111.19;4976003;28;53599;-86
2023/12/27 06:22:05;;;;;;;;;2.00;2.00;;;;;10.38;79.90;101120.16;4976463;28;45185;-83
2023/12/27 06:24:31;;;;;;;;;4.25;4.25;;;;;10.34;79.47;101107.97;5000135;28;45343;-81
2023/12/27 06:26:56;;;;;;;;;5.50;5.00;;;;;10.28;79.51;101116.22;5000551;28;45361;-82
2023/12/27 06:29:21;;;;;;;;;4.75;3.25;;;;;10.33;80.08;101130.16;5005541;27;45368;-84
2023/12/27 06:31:47;;;;;;;;;6.00;4.00;;;;;10.28;80.40;101124.19;5009958;28;45341;-83
2023/12/27 06:34:12;;;;;;;;;9.75;5.00;;;;;10.26;79.47;101115.44;5007875;28;45370;-87
2023/12/27 06:36:39;;;;;;;;;7.75;5.25;;;;;10.22;79.61;101116.50;4992586;28;46164;-87
2023/12/27 06:39:06;;;;;;;;;6.75;4.00;;;;;10.19;80.27;101117.47;4993691;28;45334;-88
2023/12/27 06:41:34;;;;;;;;;9.50;7.75;;;;;10.24;80.28;101136.75;5008352;28;45258;-86
2023/12/27 06:43:59;;;;;;;;;2.75;2.75;;;;;10.17;80.77;101113.19;5016319;28;45470;-82
2023/12/27 06:46:25;;;;;;;;;7.00;6.75;;;;;10.18;80.84;101106.94;5006630;28;45252;-84
2023/12/27 06:48:50;;;;;;;;;7.00;7.00;;;;;10.23;80.00;101119.09;4980244;28;45360;-83
2023/12/27 06:51:16;;;;;;;;;6.50;5.00;;;;;10.20;79.83;101102.41;5002226;28;45445;-80
2023/12/27 06:53:41;;;;;;;;;4.75;4.75;;;;;10.21;80.50;101099.69;5002294;28;45386;-83
2023/12/27 06:56:06;;;;;;;;;4.75;4.75;;;;;10.14;80.17;101097.34;4994105;27;57632;-85
2023/12/27 06:58:32;;;;;;;;;4.25;4.00;;;;;10.06;80.38;101095.06;4977216;28;45370;-85
2023/12/27 07:00:57;;;;;;;;;6.50;5.25;;;;;10.02;80.40;101098.78;4986535;28;45514;-85
2023/12/27 07:03:24;;;;;;;;;7.25;4.75;;;;;10.03;80.94;101093.41;5000358;27;45345;-84
2023/12/27 07:05:49;;;;;;;;;7.50;5.25;;;;;10.09;80.75;101107.34;5000232;27;46316;-83
2023/12/27 07:08:15;;;;;;;;;7.00;5.00;;;;;10.10;80.49;101098.44;4976890;28;54562;-84
2023/12/27 07:10:41;;;;;;;;;12.50;8.00;;;;;9.99;80.34;101082.97;4978825;28;45448;-84
2023/12/27 07:13:08;;;;;;;;;5.75;5.75;;;;;9.97;81.41;101096.34;4992447;27;45485;-85
2023/12/27 07:15:34;;;;;;;;;5.00;5.00;;;;;9.84;80.52;101078.38;5016146;28;47429;-83
2023/12/27 07:17:59;;;;;;;;;5.25;5.25;;;;;9.99;81.00;101099.78;4998853;27;45382;-86
2023/12/27 07:20:24;;;;;;;;;11.00;8.25;;;;;9.98;80.55;101103.38;5003854;28;45990;-85
2023/12/27 07:22:50;;;;;;;;;8.00;7.00;;;;;9.94;80.11;101085.84;4978050;28;46452;-84
2023/12/27 07:25:15;;;;;;;;;8.50;8.50;;;;;9.92;81.11;101074.44;5013299;28;45324;-85
2023/12/27 07:27:41;;;;;;;;;4.67;3.00;;;;;9.91;80.18;101077.16;5007826;27;60863;-85
2023/12/27 07:30:07;;;;;;;;;5.25;5.00;;;;;9.92;80.36;101093.03;4977888;28;45728;-87
2023/12/27 07:32:32;;;;;;;;;6.50;6.50;;;;;9.92;80.49;101093.03;4998881;27;46007;-86
2023/12/27 07:34:58;;;;;;;;;10.75;10.50;;;;;9.97;80.43;101096.34;4997464;28;45580;-89
2023/12/27 07:37:24;;;;;;;;;8.25;6.50;;;;;9.90;80.36;101071.00;4994614;27;51698;-86
2023/12/27 07:39:49;;;;;;;;;4.75;4.75;;;;;9.83;79.54;101053.59;4985920;28;45468;-87
2023/12/27 07:42:15;;;;;;;;;7.00;7.00;;;;;9.92;79.71;101077.09;5018771;27;45300;-86
2023/12/27 07:44:40;;;;;;;;;9.00;5.25;;;;;9.90;80.15;101089.59;4998959;28;53987;-84
2023/12/27 07:47:06;;;;;;;;;7.00;5.25;;;;;9.75;80.69;101069.00;4997245;28;45427;-84
2023/12/27 07:49:32;;;;;;;;;2.50;2.00;;;;;9.85;80.33;101074.78;4994883;27;45369;-83
2023/12/27 07:51:57;;;;;;;;;9.75;7.00;;;;;9.82;80.67;101075.78;4995770;28;45358;-81
2023/12/27 07:54:23;;;;;;;;;6.00;6.00;;;;;9.84;80.26;101079.22;4988725;28;45359;-83
2023/12/27 07:56:48;;;;;;;;;11.50;6.50;;;;;9.83;80.29;101089.94;4975852;28;45394;-83
2023/12/27 07:59:17;;;;;;;;;5.33;3.00;;;;;9.82;79.90;101083.75;4976308;28;45302;-82
2023/12/27 08:01:43;;;;;;;;;8.00;4.75;;;;;9.80;79.96;101076.78;4980284;28;45418;-83
2023/12/27 08:04:09;;;;;;;;;7.75;5.75;;;;;9.72;80.48;101069.16;4978502;27;45393;-83
2023/12/27 08:06:35;;;;;;;;;7.25;5.50;;;;;9.73;80.55;101081.50;4980680;28;45833;-82
2023/12/27 08:09:01;;;;;;;;;7.00;7.00;;;;;9.77;80.82;101076.94;4987985;28;45488;-84
2023/12/27 08:11:26;;;;;;;;;6.00;6.00;;;;;9.74;80.60;101073.47;4989008;27;45441;-83
2023/12/27 08:13:51;;;;;;;;;7.00;7.00;;;;;9.76;79.94;101073.38;4987273;27;45493;-84
2023/12/27 08:16:17;;;;;;;;;7.00;4.50;;;;;9.79;80.60;101075.06;5016045;27;45372;-83
2023/12/27 08:18:42;;;;;;;;;8.00;7.25;;;;;9.71;80.24;101059.47;4992665;27;45815;-89
2023/12/27 08:21:08;;;;;;;;;8.75;4.75;;;;;9.85;80.04;101078.28;5075337;27;45283;-84
2023/12/27 08:23:34;;;;;;;;;7.50;3.75;;;;;9.82;79.45;101086.41;5001441;27;46082;-84
2023/12/27 08:25:59;;;;;;;;;3.00;3.00;;;;;9.77;79.24;101085.75;5044579;27;45337;-84
2023/12/27 08:28:24;;;;;;;;;7.50;7.00;;;;;9.72;80.12;101090.41;4996037;28;45253;-84
2023/12/27 08:30:50;;;;;;;;;5.00;5.00;;;;;9.71;79.82;101088.69;5013165;27;45634;-85
2023/12/27 08:33:15;;;;;;;;;9.75;8.50;;;;;9.65;80.08;101075.69;4998115;27;46156;-86
2023/12/27 08:35:41;;;;;;;;;8.75;8.00;;;;;9.65;78.80;101073.03;5005119;27;45185;-87
2023/12/27 08:38:08;;;;;;;;;8.75;7.00;;;;;9.73;79.10;101090.31;5054512;27;45428;-83
2023/12/27 08:40:33;;;;;;;;;7.75;7.00;;;;;9.67;78.89;101079.13;4997024;28;45549;-85
2023/12/27 08:42:58;;;;;;;;;9.00;8.00;;;;;9.61;78.53;101063.44;4995988;28;46079;-87
2023/12/27 08:45:24;;;;;;;;;7.25;7.00;;;;;9.40;78.41;101018.34;4989470;28;45463;-85
2023/12/27 08:47:49;;;;;;;;;6.00;6.00;;;;;9.66;78.31;101072.09;4977545;28;48847;-85
2023/12/27 08:50:15;;;;;;;;;5.50;5.50;;;;;9.61;77.88;101055.47;4995341;28;45382;-86
2023/12/27 08:52:40;;;;;;;;;7.00;4.00;;;;;9.57;78.08;101051.25;4995058;27;47233;-84
2023/12/27 08:55:08;;;;;;;;;7.75;3.75;;;;;9.58;78.07;101064.47;4996153;28;45370;-86
2023/12/27 08:57:34;;;;;;;;;14.00;6.50;;;;;9.51;77.24;101048.88;4995711;28;45274;-85
2023/12/27 09:00:00;;;;;;;;;6.00;6.00;;;;;9.56;78.10;101058.34;4994628;27;45325;-85
2023/12/27 09:02:25;;;;;;;;;8.00;6.50;;;;;9.58;77.14;101061.81;4989410;28;45454;-87
2023/12/27 09:04:50;;;;;;;;;4.25;4.00;;;;;9.56;77.33;101065.47;4981246;28;45165;-85
2023/12/27 09:07:16;;;;;;;;;9.25;7.00;;;;;9.57;77.38;101061.88;4995122;28;56644;-86
2023/12/27 09:09:41;;;;;;;;;8.25;7.00;;;;;9.49;77.11;101053.38;4975096;28;45586;-86
2023/12/27 09:12:07;;;;;;;;;6.50;6.25;;;;;9.57;76.85;101064.53;4975810;28;45974;-85
2023/12/27 09:14:32;;;;;;;;;9.25;8.00;;;;;9.43;76.76;101047.41;4983052;28;45374;-87
2023/12/27 09:16:57;;;;;;;;;7.50;6.25;;;;;9.51;76.28;101064.81;4997016;27;45648;-85
2023/12/27 09:19:23;;;;;;;;;7.75;4.00;;;;;9.45;76.57;101050.84;4990614;28;49485;-85
2023/12/27 09:21:50;;;;;;;;;7.00;7.00;;;;;9.42;76.96;101045.69;4976769;28;63269;-85
2023/12/27 09:24:15;;;;;;;;;9.00;7.25;;;;;9.45;76.75;101050.84;4996279;27;62303;-87
2023/12/27 09:26:40;;;;;;;;;9.00;7.75;;;;;9.48;75.90;101056.97;4995990;28;54446;-88
2023/12/27 09:29:09;;;;;;;;;4.00;4.00;;;;;9.48;75.34;101043.69;4995311;28;49856;-91
2023/12/27 09:31:34;;;;;;;;;7.75;6.00;;;;;9.48;75.77;101041.88;4997793;28;45943;-89
2023/12/27 09:33:59;;;;;;;;;8.25;6.00;;;;;9.59;76.07;101052.91;4998537;27;45232;-91
2023/12/27 09:36:25;;;;;;;;;7.50;7.50;;;;;9.56;74.84;101047.72;4997589;27;45468;-89
2023/12/27 09:38:51;;;;;;;;;8.75;7.25;;;;;9.58;74.92;101047.66;4979949;28;45276;-91
2023/12/27 09:41:16;;;;;;;;;4.75;4.75;;;;;9.46;75.07;101030.47;4986142;28;46111;-90
2023/12/27 09:43:43;;;;;;;;;6.00;6.00;;;;;9.63;74.33;101053.63;4998861;28;45407;-90
2023/12/27 09:46:10;;;;;;;;;7.50;6.00;;;;;9.62;74.67;101041.28;4986179;28;44790;-90
2023/12/27 09:48:40;;;;;;;;;7.75;6.25;;;;;9.73;73.50;101049.63;4982897;28;45264;-88
2023/12/27 09:51:06;;;;;;;;;8.00;6.75;;;;;9.70;74.72;101049.78;4979956;28;45320;-89
2023/12/27 09:53:32;;;;;;;;;13.25;9.50;;;;;9.70;74.38;101028.53;4985814;28;45292;-90
2023/12/27 09:55:59;;;;;;;;;10.75;7.25;;;;;9.85;73.17;101043.75;5000284;28;45450;-85
2023/12/27 09:58:27;;;;;;;;;11.25;8.00;;;;;9.92;72.80;101042.56;4991132;27;45427;-90
2023/12/27 10:00:55;;;;;;;;;7.00;7.00;;;;;9.92;73.03;101013.34;5000654;28;45451;-89
2023/12/27 10:03:31;;;;;;;;;11.25;9.75;;;;;9.99;72.30;101014.75;5000021;28;45330;-86
2023/12/27 10:06:22;;;;;;;;;11.00;8.25;;;;;10.18;71.67;101027.19;5001689;28;45310;-83
2023/12/27 10:08:48;;;;;;;;;9.00;7.25;;;;;10.12;71.55;101003.53;4992021;27;45557;-83
2023/12/27 10:11:13;;;;;;;;;6.75;6.75;;;;;10.25;70.77;101013.53;4998148;28;45392;-85
2023/12/27 10:13:41;;;;;;;;;7.75;7.75;;;;;10.09;70.42;101009.00;4997838;28;45238;-83
2023/12/27 10:16:06;;;;;;;;;4.00;4.00;;;;;10.27;70.52;101013.47;5000644;28;45358;-86
2023/12/27 10:18:32;;;;;;;;;8.75;7.00;;;;;10.32;70.21;100990.22;5000193;27;45557;-83
2023/12/27 10:20:58;;;;;;;;;8.50;8.50;;;;;10.12;69.90;100940.63;5000483;28;45754;-88
2023/12/27 10:23:24;;;;;;;;;8.00;7.00;;;;;10.28;69.52;100956.72;5004001;27;45427;-89
2023/12/27 10:25:51;;;;;;;;;7.00;5.50;;;;;10.48;69.03;100980.53;5006936;28;45321;-88
2023/12/27 10:28:17;;;;;;;;;4.50;4.50;;;;;10.63;69.22;100986.88;5009020;27;45348;-88
2023/12/27 10:30:44;;;;;;;;;5.50;4.75;;;;;10.51;68.32;100977.72;5013957;27;45567;-91
2023/12/27 10:33:10;;;;;;;;;4.50;4.50;;;;;10.60;69.15;100990.56;5007147;27;45168;-90
2023/12/27 10:35:38;;;;;;;;;7.00;7.00;;;;;10.38;67.63;100938.50;5003274;28;45265;-89
2023/12/27 10:38:07;;;;;;;;;8.00;5.00;;;;;10.37;68.11;100936.78;5001314;27;45391;-89
2023/12/27 10:40:37;;;;;;;;;4.25;2.25;;;;;10.57;67.89;100965.94;5001903;27;46666;-90
2023/12/27 10:43:03;;;;;;;;;8.00;5.67;;;;;10.47;68.10;100946.91;4990912;28;45419;-89
2023/12/27 10:45:28;;;;;;;;;6.25;4.00;;;;;10.54;68.02;100937.66;4980180;28;45393;-89
2023/12/27 10:48:01;;;;;;;;;9.00;7.00;;;;;10.58;67.54;100917.97;4981331;28;45404;-91
2023/12/27 10:50:30;;;;;;;;;10.00;7.25;;;;;10.82;67.49;100938.94;4994989;27;46138;-88
2023/12/27 10:53:02;;;;;;;;;7.00;5.00;;;;;10.82;66.86;100937.16;4979300;28;45422;-88
2023/12/27 10:55:29;;;;;;;;;4.75;4.75;;;;;10.76;66.59;100925.94;4981042;28;45244;-89
2023/12/27 10:57:56;;;;;;;;;4.75;4.75;;;;;10.86;66.78;100935.19;4981554;28;44987;-89
2023/12/27 11:00:23;;;;;;;;;5.00;4.00;;;;;10.95;67.11;100931.19;4980220;28;46352;-89
2023/12/27 11:02:50;;;;;;;;;4.33;4.33;;;;;11.03;66.35;100915.66;4994103;27;45245;-89
2023/12/27 11:05:18;;;;;;;;;7.00;4.00;;;;;11.15;65.59;100897.25;4980077;28;45236;-91
2023/12/27 11:07:46;;;;;;;;;4.50;4.50;;;;;11.24;64.94;100909.22;4979643;27;45553;-90
2023/12/27 11:10:16;;;;;;;;;6.00;4.00;;;;;11.30;65.36;100894.69;4981369;27;45421;-90
2023/12/27 11:12:48;;;;;;;;;5.00;4.00;;;;;11.40;64.99;100885.25;4981862;28;45318;-90
2023/12/27 11:15:14;;;;;;;;;4.00;3.00;;;;;11.36;65.04;100879.25;5011387;27;45233;-92
2023/12/27 11:17:41;;;;;;;;;4.33;4.33;;;;;11.40;64.14;100858.63;4980334;28;45367;-90